sensor_id;sensor_type;location;lat;lon;timestamp;P1;durP1;ratioP1;P2;durP2;ratioP2
26702;SDS011;14316;51.074;3.704;2023-06-26T00:02:25;6.30;;;3.80;;
26702;SDS011;14316;51.074;3.704;2023-06-26T00:04:51;7.70;;;4.80;;
26702;SDS011;14316;51.074;3.704;2023-06-26T00:07:20;8.20;;;4.50;;
26702;SDS011;14316;51.074;3.704;2023-06-26T00:09:46;7.45;;;4.38;;
26702;SDS011;14316;51.074;3.704;2023-06-26T00:12:12;6.05;;;3.78;;
26702;SDS011;14316;51.074;3.704;2023-06-26T00:14:38;7.28;;;4.18;;
26702;SDS011;14316;51.074;3.704;2023-06-26T00:17:04;4.47;;;2.97;;
26702;SDS011;14316;51.074;3.704;2023-06-26T00:19:30;7.53;;;4.38;;
26702;SDS011;14316;51.074;3.704;2023-06-26T00:21:56;6.63;;;4.28;;
26702;SDS011;14316;51.074;3.704;2023-06-26T00:24:22;7.55;;;4.30;;
26702;SDS011;14316;51.074;3.704;2023-06-26T00:26:48;6.22;;;4.32;;
26702;SDS011;14316;51.074;3.704;2023-06-26T00:29:14;6.80;;;4.80;;
26702;SDS011;14316;51.074;3.704;2023-06-26T00:31:41;8.18;;;4.53;;
26702;SDS011;14316;51.074;3.704;2023-06-26T00:34:07;8.25;;;4.65;;
26702;SDS011;14316;51.074;3.704;2023-06-26T00:36:33;6.75;;;4.50;;
26702;SDS011;14316;51.074;3.704;2023-06-26T00:38:59;6.80;;;4.68;;
26702;SDS011;14316;51.074;3.704;2023-06-26T00:41:25;9.15;;;5.28;;
26702;SDS011;14316;51.074;3.704;2023-06-26T00:43:51;6.68;;;5.05;;
26702;SDS011;14316;51.074;3.704;2023-06-26T00:46:17;8.55;;;4.63;;
26702;SDS011;14316;51.074;3.704;2023-06-26T00:48:44;9.55;;;5.10;;
26702;SDS011;14316;51.074;3.704;2023-06-26T00:51:11;6.57;;;4.55;;
26702;SDS011;14316;51.074;3.704;2023-06-26T00:53:37;8.77;;;5.70;;
26702;SDS011;14316;51.074;3.704;2023-06-26T00:56:04;7.35;;;4.90;;
26702;SDS011;14316;51.074;3.704;2023-06-26T00:58:30;8.55;;;5.15;;
26702;SDS011;14316;51.074;3.704;2023-06-26T01:00:57;8.90;;;5.20;;
26702;SDS011;14316;51.074;3.704;2023-06-26T01:03:24;11.13;;;5.22;;
26702;SDS011;14316;51.074;3.704;2023-06-26T01:05:54;9.00;;;4.90;;
26702;SDS011;14316;51.074;3.704;2023-06-26T01:08:23;10.57;;;5.38;;
26702;SDS011;14316;51.074;3.704;2023-06-26T01:10:49;9.75;;;4.85;;
26702;SDS011;14316;51.074;3.704;2023-06-26T01:13:16;9.75;;;4.70;;
26702;SDS011;14316;51.074;3.704;2023-06-26T01:15:43;9.43;;;5.15;;
26702;SDS011;14316;51.074;3.704;2023-06-26T01:18:10;9.77;;;5.47;;
26702;SDS011;14316;51.074;3.704;2023-06-26T01:20:37;8.70;;;5.35;;
26702;SDS011;14316;51.074;3.704;2023-06-26T01:23:14;11.50;;;5.80;;
26702;SDS011;14316;51.074;3.704;2023-06-26T01:26:06;11.65;;;5.70;;
26702;SDS011;14316;51.074;3.704;2023-06-26T01:28:37;11.30;;;5.72;;
26702;SDS011;14316;51.074;3.704;2023-06-26T01:31:06;12.02;;;5.72;;
26702;SDS011;14316;51.074;3.704;2023-06-26T01:33:33;10.55;;;5.88;;
26702;SDS011;14316;51.074;3.704;2023-06-26T01:36:00;11.30;;;5.55;;
26702;SDS011;14316;51.074;3.704;2023-06-26T01:38:27;10.20;;;5.55;;
26702;SDS011;14316;51.074;3.704;2023-06-26T01:40:53;15.00;;;5.93;;
26702;SDS011;14316;51.074;3.704;2023-06-26T01:46:12;9.68;;;5.53;;
26702;SDS011;14316;51.074;3.704;2023-06-26T01:48:59;13.20;;;6.22;;
26702;SDS011;14316;51.074;3.704;2023-06-26T01:51:35;13.10;;;6.38;;
26702;SDS011;14316;51.074;3.704;2023-06-26T01:54:08;12.35;;;6.30;;
26702;SDS011;14316;51.074;3.704;2023-06-26T01:56:38;10.00;;;6.00;;
26702;SDS011;14316;51.074;3.704;2023-06-26T01:59:06;12.93;;;6.53;;
26702;SDS011;14316;51.074;3.704;2023-06-26T02:01:34;11.48;;;6.10;;
26702;SDS011;14316;51.074;3.704;2023-06-26T02:04:01;14.70;;;7.15;;
26702;SDS011;14316;51.074;3.704;2023-06-26T02:06:27;11.57;;;6.82;;
26702;SDS011;14316;51.074;3.704;2023-06-26T02:08:52;17.60;;;6.32;;
26702;SDS011;14316;51.074;3.704;2023-06-26T02:11:22;14.02;;;6.63;;
26702;SDS011;14316;51.074;3.704;2023-06-26T02:13:48;14.30;;;6.95;;
26702;SDS011;14316;51.074;3.704;2023-06-26T02:16:14;9.68;;;5.28;;
26702;SDS011;14316;51.074;3.704;2023-06-26T02:18:40;13.13;;;6.68;;
26702;SDS011;14316;51.074;3.704;2023-06-26T02:21:06;17.75;;;7.30;;
26702;SDS011;14316;51.074;3.704;2023-06-26T02:23:34;10.27;;;5.22;;
26702;SDS011;14316;51.074;3.704;2023-06-26T02:26:01;13.82;;;7.00;;
26702;SDS011;14316;51.074;3.704;2023-06-26T02:28:27;14.45;;;8.07;;
26702;SDS011;14316;51.074;3.704;2023-06-26T02:30:53;19.58;;;7.90;;
26702;SDS011;14316;51.074;3.704;2023-06-26T02:33:19;20.17;;;7.22;;
26702;SDS011;14316;51.074;3.704;2023-06-26T02:35:44;13.52;;;6.53;;
26702;SDS011;14316;51.074;3.704;2023-06-26T02:38:11;17.05;;;7.80;;
26702;SDS011;14316;51.074;3.704;2023-06-26T02:40:38;15.30;;;5.72;;
26702;SDS011;14316;51.074;3.704;2023-06-26T02:43:03;17.20;;;6.93;;
26702;SDS011;14316;51.074;3.704;2023-06-26T02:45:29;15.45;;;7.13;;
26702;SDS011;14316;51.074;3.704;2023-06-26T02:47:55;20.25;;;7.82;;
26702;SDS011;14316;51.074;3.704;2023-06-26T02:50:22;19.55;;;7.20;;
26702;SDS011;14316;51.074;3.704;2023-06-26T02:52:48;11.55;;;6.45;;
26702;SDS011;14316;51.074;3.704;2023-06-26T02:55:17;12.63;;;6.68;;
26702;SDS011;14316;51.074;3.704;2023-06-26T02:57:44;19.67;;;8.00;;
26702;SDS011;14316;51.074;3.704;2023-06-26T03:00:10;15.57;;;7.05;;
26702;SDS011;14316;51.074;3.704;2023-06-26T03:02:38;17.75;;;6.72;;
26702;SDS011;14316;51.074;3.704;2023-06-26T03:05:04;17.52;;;7.45;;
26702;SDS011;14316;51.074;3.704;2023-06-26T03:07:30;18.02;;;7.10;;
26702;SDS011;14316;51.074;3.704;2023-06-26T03:09:56;14.15;;;6.50;;
26702;SDS011;14316;51.074;3.704;2023-06-26T03:12:22;16.85;;;7.13;;
26702;SDS011;14316;51.074;3.704;2023-06-26T03:14:49;18.85;;;6.93;;
26702;SDS011;14316;51.074;3.704;2023-06-26T03:17:14;20.67;;;7.32;;
26702;SDS011;14316;51.074;3.704;2023-06-26T03:19:40;20.70;;;7.75;;
26702;SDS011;14316;51.074;3.704;2023-06-26T03:22:06;14.45;;;6.28;;
26702;SDS011;14316;51.074;3.704;2023-06-26T03:24:32;17.80;;;7.53;;
26702;SDS011;14316;51.074;3.704;2023-06-26T03:26:59;17.20;;;7.47;;
26702;SDS011;14316;51.074;3.704;2023-06-26T03:29:25;14.63;;;7.30;;
26702;SDS011;14316;51.074;3.704;2023-06-26T03:31:51;14.57;;;7.05;;
26702;SDS011;14316;51.074;3.704;2023-06-26T03:34:17;17.38;;;7.18;;
26702;SDS011;14316;51.074;3.704;2023-06-26T03:36:43;14.70;;;6.63;;
26702;SDS011;14316;51.074;3.704;2023-06-26T03:39:09;18.50;;;7.13;;
26702;SDS011;14316;51.074;3.704;2023-06-26T03:41:35;17.77;;;7.10;;
26702;SDS011;14316;51.074;3.704;2023-06-26T03:44:01;17.85;;;6.90;;
26702;SDS011;14316;51.074;3.704;2023-06-26T03:46:28;18.08;;;7.22;;
26702;SDS011;14316;51.074;3.704;2023-06-26T03:48:54;17.20;;;7.10;;
26702;SDS011;14316;51.074;3.704;2023-06-26T03:51:20;20.20;;;7.25;;
26702;SDS011;14316;51.074;3.704;2023-06-26T03:53:46;17.80;;;6.53;;
26702;SDS011;14316;51.074;3.704;2023-06-26T03:56:12;18.63;;;7.05;;
26702;SDS011;14316;51.074;3.704;2023-06-26T03:58:39;20.05;;;7.13;;
26702;SDS011;14316;51.074;3.704;2023-06-26T04:01:05;16.33;;;6.97;;
26702;SDS011;14316;51.074;3.704;2023-06-26T04:03:31;20.23;;;6.88;;
26702;SDS011;14316;51.074;3.704;2023-06-26T04:05:59;17.85;;;6.78;;
26702;SDS011;14316;51.074;3.704;2023-06-26T04:08:24;14.23;;;6.30;;
26702;SDS011;14316;51.074;3.704;2023-06-26T04:10:53;19.10;;;7.13;;
26702;SDS011;14316;51.074;3.704;2023-06-26T04:13:20;15.52;;;6.38;;
26702;SDS011;14316;51.074;3.704;2023-06-26T04:15:46;18.50;;;6.63;;
26702;SDS011;14316;51.074;3.704;2023-06-26T04:18:12;17.73;;;6.53;;
26702;SDS011;14316;51.074;3.704;2023-06-26T04:20:39;13.15;;;6.00;;
26702;SDS011;14316;51.074;3.704;2023-06-26T04:23:06;15.35;;;6.13;;
26702;SDS011;14316;51.074;3.704;2023-06-26T04:25:32;19.75;;;6.35;;
26702;SDS011;14316;51.074;3.704;2023-06-26T04:27:58;17.75;;;6.60;;
26702;SDS011;14316;51.074;3.704;2023-06-26T04:30:24;16.38;;;6.40;;
26702;SDS011;14316;51.074;3.704;2023-06-26T04:32:50;16.70;;;6.00;;
26702;SDS011;14316;51.074;3.704;2023-06-26T04:35:16;22.05;;;6.18;;
26702;SDS011;14316;51.074;3.704;2023-06-26T04:37:42;16.40;;;6.60;;
26702;SDS011;14316;51.074;3.704;2023-06-26T04:40:08;19.50;;;5.55;;
26702;SDS011;14316;51.074;3.704;2023-06-26T04:42:36;17.08;;;5.88;;
26702;SDS011;14316;51.074;3.704;2023-06-26T04:45:02;15.90;;;5.45;;
26702;SDS011;14316;51.074;3.704;2023-06-26T04:47:28;15.30;;;5.78;;
26702;SDS011;14316;51.074;3.704;2023-06-26T04:49:54;15.55;;;5.53;;
26702;SDS011;14316;51.074;3.704;2023-06-26T04:52:20;15.85;;;6.38;;
26702;SDS011;14316;51.074;3.704;2023-06-26T04:54:46;14.80;;;5.28;;
26702;SDS011;14316;51.074;3.704;2023-06-26T04:57:12;10.25;;;4.22;;
26702;SDS011;14316;51.074;3.704;2023-06-26T04:59:39;13.25;;;5.68;;
26702;SDS011;14316;51.074;3.704;2023-06-26T05:02:05;11.90;;;5.05;;
26702;SDS011;14316;51.074;3.704;2023-06-26T05:04:32;11.90;;;4.65;;
26702;SDS011;14316;51.074;3.704;2023-06-26T05:06:58;13.02;;;4.88;;
26702;SDS011;14316;51.074;3.704;2023-06-26T05:09:24;15.02;;;4.20;;
26702;SDS011;14316;51.074;3.704;2023-06-26T05:11:50;13.55;;;4.50;;
26702;SDS011;14316;51.074;3.704;2023-06-26T05:14:16;12.05;;;4.32;;
26702;SDS011;14316;51.074;3.704;2023-06-26T05:16:42;12.52;;;4.70;;
26702;SDS011;14316;51.074;3.704;2023-06-26T05:19:08;13.60;;;5.30;;
26702;SDS011;14316;51.074;3.704;2023-06-26T05:21:34;11.88;;;4.38;;
26702;SDS011;14316;51.074;3.704;2023-06-26T05:24:00;11.80;;;4.50;;
26702;SDS011;14316;51.074;3.704;2023-06-26T05:26:28;13.60;;;3.75;;
26702;SDS011;14316;51.074;3.704;2023-06-26T05:28:55;9.95;;;4.15;;
26702;SDS011;14316;51.074;3.704;2023-06-26T05:31:21;10.73;;;3.83;;
26702;SDS011;14316;51.074;3.704;2023-06-26T05:33:47;9.43;;;3.95;;
26702;SDS011;14316;51.074;3.704;2023-06-26T05:36:15;6.80;;;3.60;;
26702;SDS011;14316;51.074;3.704;2023-06-26T05:38:44;8.18;;;3.50;;
26702;SDS011;14316;51.074;3.704;2023-06-26T05:41:10;12.27;;;4.05;;
26702;SDS011;14316;51.074;3.704;2023-06-26T05:43:37;7.97;;;3.35;;
26702;SDS011;14316;51.074;3.704;2023-06-26T05:46:03;7.68;;;3.25;;
26702;SDS011;14316;51.074;3.704;2023-06-26T05:48:28;13.90;;;3.75;;
26702;SDS011;14316;51.074;3.704;2023-06-26T05:50:54;9.27;;;3.53;;
26702;SDS011;14316;51.074;3.704;2023-06-26T05:53:21;7.05;;;3.03;;
26702;SDS011;14316;51.074;3.704;2023-06-26T05:55:47;10.23;;;3.33;;
26702;SDS011;14316;51.074;3.704;2023-06-26T05:58:13;7.55;;;2.80;;
26702;SDS011;14316;51.074;3.704;2023-06-26T06:00:41;8.75;;;2.72;;
26702;SDS011;14316;51.074;3.704;2023-06-26T06:03:09;10.55;;;3.17;;
26702;SDS011;14316;51.074;3.704;2023-06-26T06:05:36;9.85;;;2.65;;
26702;SDS011;14316;51.074;3.704;2023-06-26T06:08:02;70.30;;;12.90;;
26702;SDS011;14316;51.074;3.704;2023-06-26T06:10:28;33.67;;;6.45;;
26702;SDS011;14316;51.074;3.704;2023-06-26T06:12:54;251.50;;;31.23;;
26702;SDS011;14316;51.074;3.704;2023-06-26T06:15:20;6.80;;;2.45;;
26702;SDS011;14316;51.074;3.704;2023-06-26T06:17:46;7.68;;;2.70;;
26702;SDS011;14316;51.074;3.704;2023-06-26T06:20:12;8.82;;;2.28;;
26702;SDS011;14316;51.074;3.704;2023-06-26T06:22:38;4.47;;;2.40;;
26702;SDS011;14316;51.074;3.704;2023-06-26T06:25:04;8.40;;;2.90;;
26702;SDS011;14316;51.074;3.704;2023-06-26T06:27:30;8.63;;;2.72;;
26702;SDS011;14316;51.074;3.704;2023-06-26T06:29:56;10.40;;;2.63;;
26702;SDS011;14316;51.074;3.704;2023-06-26T06:32:22;6.85;;;2.40;;
26702;SDS011;14316;51.074;3.704;2023-06-26T06:34:48;7.38;;;2.50;;
26702;SDS011;14316;51.074;3.704;2023-06-26T06:37:14;148.25;;;17.90;;
26702;SDS011;14316;51.074;3.704;2023-06-26T06:39:40;13.55;;;2.90;;
26702;SDS011;14316;51.074;3.704;2023-06-26T06:42:06;7.53;;;2.30;;
26702;SDS011;14316;51.074;3.704;2023-06-26T06:44:33;6.57;;;2.95;;
26702;SDS011;14316;51.074;3.704;2023-06-26T06:46:59;8.38;;;2.70;;
26702;SDS011;14316;51.074;3.704;2023-06-26T06:49:24;7.50;;;2.92;;
26702;SDS011;14316;51.074;3.704;2023-06-26T06:51:50;7.90;;;2.42;;
26702;SDS011;14316;51.074;3.704;2023-06-26T06:54:17;6.45;;;2.00;;
26702;SDS011;14316;51.074;3.704;2023-06-26T06:56:44;7.95;;;2.72;;
26702;SDS011;14316;51.074;3.704;2023-06-26T06:59:10;7.30;;;2.38;;
26702;SDS011;14316;51.074;3.704;2023-06-26T07:01:36;6.80;;;2.28;;
26702;SDS011;14316;51.074;3.704;2023-06-26T07:04:02;7.85;;;2.33;;
26702;SDS011;14316;51.074;3.704;2023-06-26T07:06:29;6.93;;;2.22;;
26702;SDS011;14316;51.074;3.704;2023-06-26T07:08:55;8.52;;;2.20;;
26702;SDS011;14316;51.074;3.704;2023-06-26T07:11:21;6.75;;;2.05;;
26702;SDS011;14316;51.074;3.704;2023-06-26T07:13:47;6.90;;;2.25;;
26702;SDS011;14316;51.074;3.704;2023-06-26T07:16:13;7.63;;;2.42;;
26702;SDS011;14316;51.074;3.704;2023-06-26T07:18:40;7.28;;;2.28;;
26702;SDS011;14316;51.074;3.704;2023-06-26T07:21:06;8.13;;;2.13;;
26702;SDS011;14316;51.074;3.704;2023-06-26T07:23:32;6.85;;;2.05;;
26702;SDS011;14316;51.074;3.704;2023-06-26T07:25:58;5.07;;;2.50;;
26702;SDS011;14316;51.074;3.704;2023-06-26T07:28:24;7.15;;;2.20;;
26702;SDS011;14316;51.074;3.704;2023-06-26T07:30:51;9.68;;;2.35;;
26702;SDS011;14316;51.074;3.704;2023-06-26T07:33:17;9.20;;;2.17;;
26702;SDS011;14316;51.074;3.704;2023-06-26T07:35:43;5.25;;;2.20;;
26702;SDS011;14316;51.074;3.704;2023-06-26T07:38:09;6.55;;;2.25;;
26702;SDS011;14316;51.074;3.704;2023-06-26T07:40:34;5.22;;;2.38;;
26702;SDS011;14316;51.074;3.704;2023-06-26T07:43:01;4.47;;;2.08;;
26702;SDS011;14316;51.074;3.704;2023-06-26T07:45:27;7.18;;;2.10;;
26702;SDS011;14316;51.074;3.704;2023-06-26T07:47:53;7.07;;;2.25;;
26702;SDS011;14316;51.074;3.704;2023-06-26T07:50:18;6.35;;;2.00;;
26702;SDS011;14316;51.074;3.704;2023-06-26T07:52:47;5.45;;;1.83;;
26702;SDS011;14316;51.074;3.704;2023-06-26T07:55:20;7.43;;;2.13;;
26702;SDS011;14316;51.074;3.704;2023-06-26T07:57:45;5.47;;;1.65;;
26702;SDS011;14316;51.074;3.704;2023-06-26T08:00:11;6.20;;;2.38;;
26702;SDS011;14316;51.074;3.704;2023-06-26T08:02:37;5.40;;;1.92;;
26702;SDS011;14316;51.074;3.704;2023-06-26T08:05:03;5.20;;;2.00;;
26702;SDS011;14316;51.074;3.704;2023-06-26T08:07:29;5.65;;;1.90;;
26702;SDS011;14316;51.074;3.704;2023-06-26T08:09:54;7.22;;;2.45;;
26702;SDS011;14316;51.074;3.704;2023-06-26T08:12:20;4.30;;;2.20;;
26702;SDS011;14316;51.074;3.704;2023-06-26T08:14:46;5.90;;;2.17;;
26702;SDS011;14316;51.074;3.704;2023-06-26T08:17:11;7.65;;;3.20;;
26702;SDS011;14316;51.074;3.704;2023-06-26T08:19:38;3.95;;;1.90;;
26702;SDS011;14316;51.074;3.704;2023-06-26T08:22:03;4.05;;;1.75;;
26702;SDS011;14316;51.074;3.704;2023-06-26T08:24:30;2.97;;;1.80;;
26702;SDS011;14316;51.074;3.704;2023-06-26T08:26:55;3.05;;;1.70;;
26702;SDS011;14316;51.074;3.704;2023-06-26T08:29:21;10.30;;;2.20;;
26702;SDS011;14316;51.074;3.704;2023-06-26T08:31:47;4.40;;;1.90;;
26702;SDS011;14316;51.074;3.704;2023-06-26T08:34:13;4.93;;;2.20;;
26702;SDS011;14316;51.074;3.704;2023-06-26T08:36:38;4.13;;;1.95;;
26702;SDS011;14316;51.074;3.704;2023-06-26T08:39:04;2.90;;;1.70;;
26702;SDS011;14316;51.074;3.704;2023-06-26T08:41:30;4.90;;;1.80;;
26702;SDS011;14316;51.074;3.704;2023-06-26T08:43:57;3.25;;;1.30;;
26702;SDS011;14316;51.074;3.704;2023-06-26T08:46:23;53.65;;;10.73;;
26702;SDS011;14316;51.074;3.704;2023-06-26T08:48:49;181.02;;;23.88;;
26702;SDS011;14316;51.074;3.704;2023-06-26T08:51:23;152.88;;;21.40;;
26702;SDS011;14316;51.074;3.704;2023-06-26T08:56:30;110.78;;;16.52;;
26702;SDS011;14316;51.074;3.704;2023-06-26T08:58:58;129.63;;;16.92;;
26702;SDS011;14316;51.074;3.704;2023-06-26T09:01:24;76.25;;;11.07;;
26702;SDS011;14316;51.074;3.704;2023-06-26T09:03:50;10.43;;;2.67;;
26702;SDS011;14316;51.074;3.704;2023-06-26T09:06:16;8.63;;;2.40;;
26702;SDS011;14316;51.074;3.704;2023-06-26T09:08:43;8.63;;;2.35;;
26702;SDS011;14316;51.074;3.704;2023-06-26T09:11:09;9.98;;;2.05;;
26702;SDS011;14316;51.074;3.704;2023-06-26T09:13:35;10.10;;;2.42;;
26702;SDS011;14316;51.074;3.704;2023-06-26T09:16:08;6.30;;;2.03;;
26702;SDS011;14316;51.074;3.704;2023-06-26T09:18:34;5.72;;;1.90;;
26702;SDS011;14316;51.074;3.704;2023-06-26T09:21:05;9.20;;;2.33;;
26702;SDS011;14316;51.074;3.704;2023-06-26T09:23:32;4.22;;;1.90;;
26702;SDS011;14316;51.074;3.704;2023-06-26T09:26:01;5.43;;;2.05;;
26702;SDS011;14316;51.074;3.704;2023-06-26T09:28:29;11.50;;;2.13;;
26702;SDS011;14316;51.074;3.704;2023-06-26T09:30:59;2.65;;;1.60;;
26702;SDS011;14316;51.074;3.704;2023-06-26T09:33:27;8.65;;;2.00;;
26702;SDS011;14316;51.074;3.704;2023-06-26T09:35:52;4.85;;;1.55;;
26702;SDS011;14316;51.074;3.704;2023-06-26T09:38:18;4.15;;;1.80;;
26702;SDS011;14316;51.074;3.704;2023-06-26T09:40:46;3.38;;;1.88;;
26702;SDS011;14316;51.074;3.704;2023-06-26T09:43:12;5.28;;;1.77;;
26702;SDS011;14316;51.074;3.704;2023-06-26T09:45:39;4.60;;;1.83;;
26702;SDS011;14316;51.074;3.704;2023-06-26T09:48:06;3.53;;;1.73;;
26702;SDS011;14316;51.074;3.704;2023-06-26T09:50:36;4.32;;;1.60;;
26702;SDS011;14316;51.074;3.704;2023-06-26T09:53:10;5.10;;;1.95;;
26702;SDS011;14316;51.074;3.704;2023-06-26T09:55:38;4.47;;;2.20;;
26702;SDS011;14316;51.074;3.704;2023-06-26T09:58:09;5.13;;;1.90;;
26702;SDS011;14316;51.074;3.704;2023-06-26T10:00:40;3.85;;;1.73;;
26702;SDS011;14316;51.074;3.704;2023-06-26T10:03:07;3.50;;;1.48;;
26702;SDS011;14316;51.074;3.704;2023-06-26T10:05:33;2.75;;;1.73;;
26702;SDS011;14316;51.074;3.704;2023-06-26T10:08:00;5.93;;;1.63;;
26702;SDS011;14316;51.074;3.704;2023-06-26T10:10:27;4.65;;;1.80;;
26702;SDS011;14316;51.074;3.704;2023-06-26T10:12:56;4.55;;;1.60;;
26702;SDS011;14316;51.074;3.704;2023-06-26T10:15:26;5.03;;;1.40;;
26702;SDS011;14316;51.074;3.704;2023-06-26T10:17:54;4.63;;;1.60;;
26702;SDS011;14316;51.074;3.704;2023-06-26T10:20:21;4.57;;;1.60;;
26702;SDS011;14316;51.074;3.704;2023-06-26T10:22:48;2.20;;;1.60;;
26702;SDS011;14316;51.074;3.704;2023-06-26T10:25:18;2.05;;;1.40;;
26702;SDS011;14316;51.074;3.704;2023-06-26T10:27:45;6.28;;;1.70;;
26702;SDS011;14316;51.074;3.704;2023-06-26T10:30:16;4.50;;;1.67;;
26702;SDS011;14316;51.074;3.704;2023-06-26T10:32:46;2.60;;;1.70;;
26702;SDS011;14316;51.074;3.704;2023-06-26T10:35:12;3.65;;;2.05;;
26702;SDS011;14316;51.074;3.704;2023-06-26T10:37:46;4.72;;;1.95;;
26702;SDS011;14316;51.074;3.704;2023-06-26T10:40:14;4.05;;;1.60;;
26702;SDS011;14316;51.074;3.704;2023-06-26T10:42:45;6.43;;;2.10;;
26702;SDS011;14316;51.074;3.704;2023-06-26T10:45:18;5.63;;;1.98;;
26702;SDS011;14316;51.074;3.704;2023-06-26T10:47:46;5.60;;;1.88;;
26702;SDS011;14316;51.074;3.704;2023-06-26T10:50:16;9.43;;;2.00;;
26702;SDS011;14316;51.074;3.704;2023-06-26T10:52:46;3.38;;;2.03;;
26702;SDS011;14316;51.074;3.704;2023-06-26T10:55:31;3.95;;;1.73;;
26702;SDS011;14316;51.074;3.704;2023-06-26T10:57:57;4.43;;;1.98;;
26702;SDS011;14316;51.074;3.704;2023-06-26T11:00:23;3.33;;;1.67;;
26702;SDS011;14316;51.074;3.704;2023-06-26T11:02:52;5.72;;;2.10;;
26702;SDS011;14316;51.074;3.704;2023-06-26T11:05:28;6.22;;;1.65;;
26702;SDS011;14316;51.074;3.704;2023-06-26T11:08:10;4.85;;;1.67;;
26702;SDS011;14316;51.074;3.704;2023-06-26T11:10:59;5.53;;;1.83;;
26702;SDS011;14316;51.074;3.704;2023-06-26T11:13:26;3.55;;;1.73;;
26702;SDS011;14316;51.074;3.704;2023-06-26T11:15:52;4.93;;;1.83;;
26702;SDS011;14316;51.074;3.704;2023-06-26T11:18:21;6.35;;;2.10;;
26702;SDS011;14316;51.074;3.704;2023-06-26T11:20:49;3.72;;;1.70;;
26702;SDS011;14316;51.074;3.704;2023-06-26T11:23:15;3.88;;;1.65;;
26702;SDS011;14316;51.074;3.704;2023-06-26T11:25:49;5.22;;;1.88;;
26702;SDS011;14316;51.074;3.704;2023-06-26T11:28:15;2.38;;;1.48;;
26702;SDS011;14316;51.074;3.704;2023-06-26T11:30:41;4.35;;;1.58;;
26702;SDS011;14316;51.074;3.704;2023-06-26T11:33:07;4.32;;;1.70;;
26702;SDS011;14316;51.074;3.704;2023-06-26T11:35:35;2.78;;;1.42;;
26702;SDS011;14316;51.074;3.704;2023-06-26T11:38:01;3.10;;;1.20;;
26702;SDS011;14316;51.074;3.704;2023-06-26T11:40:33;9.10;;;1.95;;
26702;SDS011;14316;51.074;3.704;2023-06-26T11:43:01;4.90;;;1.70;;
26702;SDS011;14316;51.074;3.704;2023-06-26T11:45:28;6.15;;;1.90;;
26702;SDS011;14316;51.074;3.704;2023-06-26T11:47:59;2.63;;;1.50;;
26702;SDS011;14316;51.074;3.704;2023-06-26T11:50:25;5.45;;;1.70;;
26702;SDS011;14316;51.074;3.704;2023-06-26T11:52:55;3.10;;;1.30;;
26702;SDS011;14316;51.074;3.704;2023-06-26T11:55:22;5.47;;;1.60;;
26702;SDS011;14316;51.074;3.704;2023-06-26T11:57:49;3.17;;;1.42;;
26702;SDS011;14316;51.074;3.704;2023-06-26T12:00:16;3.67;;;1.58;;
26702;SDS011;14316;51.074;3.704;2023-06-26T12:02:43;4.50;;;1.75;;
26702;SDS011;14316;51.074;3.704;2023-06-26T12:05:10;3.35;;;1.40;;
26702;SDS011;14316;51.074;3.704;2023-06-26T12:07:37;4.72;;;1.92;;
26702;SDS011;14316;51.074;3.704;2023-06-26T12:10:04;4.93;;;1.92;;
26702;SDS011;14316;51.074;3.704;2023-06-26T12:12:31;4.32;;;1.38;;
26702;SDS011;14316;51.074;3.704;2023-06-26T12:14:58;5.00;;;1.90;;
26702;SDS011;14316;51.074;3.704;2023-06-26T12:17:25;3.08;;;1.60;;
26702;SDS011;14316;51.074;3.704;2023-06-26T12:19:51;3.38;;;1.70;;
26702;SDS011;14316;51.074;3.704;2023-06-26T12:22:17;3.83;;;1.55;;
26702;SDS011;14316;51.074;3.704;2023-06-26T12:24:44;3.80;;;1.75;;
26702;SDS011;14316;51.074;3.704;2023-06-26T12:27:12;2.72;;;1.65;;
26702;SDS011;14316;51.074;3.704;2023-06-26T12:29:41;7.00;;;2.13;;
26702;SDS011;14316;51.074;3.704;2023-06-26T12:32:12;4.47;;;1.77;;
26702;SDS011;14316;51.074;3.704;2023-06-26T12:34:39;3.40;;;1.42;;
26702;SDS011;14316;51.074;3.704;2023-06-26T12:37:06;11.43;;;2.20;;
26702;SDS011;14316;51.074;3.704;2023-06-26T12:39:46;8.20;;;1.85;;
26702;SDS011;14316;51.074;3.704;2023-06-26T12:42:19;9.70;;;2.55;;
26702;SDS011;14316;51.074;3.704;2023-06-26T12:44:45;4.25;;;1.80;;
26702;SDS011;14316;51.074;3.704;2023-06-26T12:47:11;7.30;;;2.00;;
26702;SDS011;14316;51.074;3.704;2023-06-26T12:49:40;6.43;;;1.80;;
26702;SDS011;14316;51.074;3.704;2023-06-26T12:52:10;7.20;;;1.70;;
26702;SDS011;14316;51.074;3.704;2023-06-26T12:54:38;6.32;;;2.03;;
26702;SDS011;14316;51.074;3.704;2023-06-26T12:57:05;6.45;;;1.83;;
26702;SDS011;14316;51.074;3.704;2023-06-26T12:59:31;2.88;;;1.67;;
26702;SDS011;14316;51.074;3.704;2023-06-26T13:01:58;4.35;;;1.40;;
26702;SDS011;14316;51.074;3.704;2023-06-26T13:04:25;6.90;;;1.60;;
26702;SDS011;14316;51.074;3.704;2023-06-26T13:06:51;7.53;;;2.50;;
26702;SDS011;14316;51.074;3.704;2023-06-26T13:09:20;5.05;;;1.83;;
26702;SDS011;14316;51.074;3.704;2023-06-26T13:11:47;3.15;;;1.83;;
26702;SDS011;14316;51.074;3.704;2023-06-26T13:14:13;10.40;;;2.47;;
26702;SDS011;14316;51.074;3.704;2023-06-26T13:16:39;37.17;;;6.40;;
26702;SDS011;14316;51.074;3.704;2023-06-26T13:19:06;8.50;;;2.42;;
26702;SDS011;14316;51.074;3.704;2023-06-26T13:21:33;2.33;;;1.52;;
26702;SDS011;14316;51.074;3.704;2023-06-26T13:23:59;4.13;;;1.77;;
26702;SDS011;14316;51.074;3.704;2023-06-26T13:26:25;5.45;;;1.58;;
26702;SDS011;14316;51.074;3.704;2023-06-26T13:28:53;4.30;;;1.75;;
26702;SDS011;14316;51.074;3.704;2023-06-26T13:31:19;3.75;;;1.77;;
26702;SDS011;14316;51.074;3.704;2023-06-26T13:33:45;4.00;;;1.55;;
26702;SDS011;14316;51.074;3.704;2023-06-26T13:36:13;6.85;;;2.35;;
26702;SDS011;14316;51.074;3.704;2023-06-26T13:38:40;2.60;;;1.55;;
26702;SDS011;14316;51.074;3.704;2023-06-26T13:41:06;3.30;;;1.48;;
26702;SDS011;14316;51.074;3.704;2023-06-26T13:43:32;1.98;;;1.20;;
26702;SDS011;14316;51.074;3.704;2023-06-26T13:45:57;3.33;;;1.55;;
26702;SDS011;14316;51.074;3.704;2023-06-26T13:48:23;3.22;;;1.60;;
26702;SDS011;14316;51.074;3.704;2023-06-26T13:50:49;2.40;;;1.60;;
26702;SDS011;14316;51.074;3.704;2023-06-26T13:53:15;5.47;;;1.80;;
26702;SDS011;14316;51.074;3.704;2023-06-26T13:55:41;5.68;;;1.30;;
26702;SDS011;14316;51.074;3.704;2023-06-26T13:58:07;14.23;;;2.33;;
26702;SDS011;14316;51.074;3.704;2023-06-26T14:00:34;5.53;;;1.27;;
26702;SDS011;14316;51.074;3.704;2023-06-26T14:03:01;4.45;;;1.50;;
26702;SDS011;14316;51.074;3.704;2023-06-26T14:05:28;3.42;;;1.70;;
26702;SDS011;14316;51.074;3.704;2023-06-26T14:07:55;5.95;;;1.50;;
26702;SDS011;14316;51.074;3.704;2023-06-26T14:10:21;4.18;;;1.75;;
26702;SDS011;14316;51.074;3.704;2023-06-26T14:12:47;6.90;;;2.20;;
26702;SDS011;14316;51.074;3.704;2023-06-26T14:15:14;5.85;;;1.55;;
26702;SDS011;14316;51.074;3.704;2023-06-26T14:17:40;4.28;;;1.63;;
26702;SDS011;14316;51.074;3.704;2023-06-26T14:20:06;3.58;;;1.58;;
26702;SDS011;14316;51.074;3.704;2023-06-26T14:22:41;3.03;;;1.38;;
26702;SDS011;14316;51.074;3.704;2023-06-26T14:25:09;6.47;;;1.70;;
26702;SDS011;14316;51.074;3.704;2023-06-26T14:27:37;3.15;;;1.45;;
26702;SDS011;14316;51.074;3.704;2023-06-26T14:30:03;6.28;;;1.50;;
26702;SDS011;14316;51.074;3.704;2023-06-26T14:32:30;4.35;;;1.40;;
26702;SDS011;14316;51.074;3.704;2023-06-26T14:34:56;8.32;;;1.58;;
26702;SDS011;14316;51.074;3.704;2023-06-26T14:37:22;4.47;;;1.42;;
26702;SDS011;14316;51.074;3.704;2023-06-26T14:39:47;3.17;;;1.20;;
26702;SDS011;14316;51.074;3.704;2023-06-26T14:42:13;3.28;;;1.20;;
26702;SDS011;14316;51.074;3.704;2023-06-26T14:44:38;6.80;;;1.50;;
26702;SDS011;14316;51.074;3.704;2023-06-26T14:47:04;2.92;;;1.50;;
26702;SDS011;14316;51.074;3.704;2023-06-26T14:49:30;4.28;;;1.67;;